createdAt,value
2017-09-22T00:00:24.362Z,82.60
2017-09-22T00:02:52.755Z,82.60
2017-09-22T00:05:21.115Z,82.90
2017-09-22T00:07:49.488Z,82.20
2017-09-22T00:10:18.039Z,82.30
2017-09-22T00:12:46.402Z,82.20
2017-09-22T00:15:14.772Z,82.20
2017-09-22T00:17:44.091Z,81.90
2017-09-22T00:20:12.465Z,81.90
2017-09-22T00:22:40.835Z,81.60
2017-09-22T00:25:09.196Z,81.60
2017-09-22T00:27:38.338Z,81.80
2017-09-22T00:30:06.709Z,81.80
2017-09-22T00:32:35.076Z,81.60
2017-09-22T00:35:03.241Z,82.00
2017-09-22T00:37:31.613Z,82.10
2017-09-22T00:40:00.089Z,82.10
2017-09-22T00:42:28.528Z,81.80
2017-09-22T00:44:56.703Z,81.70
2017-09-22T00:47:25.075Z,82.00
2017-09-22T00:49:53.083Z,81.90
2017-09-22T00:52:21.453Z,82.60
2017-09-22T00:54:49.830Z,81.70
2017-09-22T00:57:18.200Z,81.60
2017-09-22T00:59:46.581Z,81.70
2017-09-22T01:02:14.606Z,82.10
2017-09-22T01:04:42.976Z,82.10
2017-09-22T01:07:11.350Z,82.30
2017-09-22T01:09:40.602Z,82.60
2017-09-22T01:12:09.049Z,82.50
2017-09-22T01:14:37.405Z,82.50
2017-09-22T01:17:05.771Z,82.90
2017-09-22T01:19:34.140Z,82.60
2017-09-22T01:22:02.783Z,83.00
2017-09-22T01:24:31.471Z,83.10
2017-09-22T01:26:59.854Z,82.90
2017-09-22T01:29:28.437Z,83.20
2017-09-22T01:31:56.905Z,83.40
2017-09-22T01:34:25.258Z,83.00
2017-09-22T01:36:54.402Z,83.50
2017-09-22T01:39:22.785Z,83.50
2017-09-22T01:41:51.145Z,83.50
2017-09-22T01:44:19.503Z,83.60
2017-09-22T01:46:47.908Z,83.50
2017-09-22T01:49:16.257Z,83.50
2017-09-22T01:51:44.631Z,83.40
2017-09-22T01:54:12.985Z,83.50
2017-09-22T01:56:41.441Z,83.70
2017-09-22T01:59:09.808Z,83.70
2017-09-22T02:01:38.167Z,84.10
2017-09-22T02:04:06.531Z,83.90
2017-09-22T02:06:34.896Z,83.90
2017-09-22T02:09:03.063Z,84.10
2017-09-22T02:11:31.439Z,84.30
2017-09-22T02:13:59.811Z,84.30
2017-09-22T02:16:28.181Z,84.20
2017-09-22T02:18:56.646Z,84.20
2017-09-22T02:21:25.060Z,84.10
2017-09-22T02:23:53.674Z,84.30
2017-09-22T02:26:22.042Z,84.20
2017-09-22T02:28:51.906Z,84.50
2017-09-22T02:31:20.483Z,84.40
2017-09-22T02:33:49.169Z,84.70
2017-09-22T02:36:17.525Z,84.70
2017-09-22T02:38:45.977Z,84.80
2017-09-22T02:41:14.337Z,84.90
2017-09-22T02:43:42.705Z,85.00
2017-09-22T02:46:11.082Z,85.30
2017-09-22T02:48:39.736Z,85.00
2017-09-22T02:51:08.161Z,85.00
2017-09-22T02:53:36.527Z,85.10
2017-09-22T02:56:04.913Z,85.20
2017-09-22T02:58:33.293Z,85.30
2017-09-22T03:01:01.642Z,85.00
2017-09-22T03:03:30.013Z,85.30
2017-09-22T03:05:57.705Z,85.10
2017-09-22T03:08:27.047Z,85.20
2017-09-22T03:10:55.421Z,85.20
2017-09-22T03:13:24.105Z,85.10
2017-09-22T03:15:52.466Z,85.00
2017-09-22T03:18:20.936Z,85.10
2017-09-22T03:20:49.320Z,85.40
2017-09-22T03:23:17.750Z,85.60
2017-09-22T03:25:46.119Z,85.60
2017-09-22T03:28:14.672Z,86.10
2017-09-22T03:30:43.030Z,85.90
2017-09-22T03:33:11.421Z,85.60
2017-09-22T03:35:39.869Z,85.80
2017-09-22T03:38:08.236Z,86.00
2017-09-22T03:40:36.602Z,86.20
2017-09-22T03:43:05.027Z,86.20
2017-09-22T03:45:33.609Z,86.70
2017-09-22T03:48:02.044Z,86.10
2017-09-22T03:50:30.433Z,86.10
2017-09-22T03:52:58.824Z,86.10
2017-09-22T03:55:27.174Z,86.50
2017-09-22T03:57:55.646Z,86.30
2017-09-22T04:00:24.008Z,86.50
2017-09-22T04:02:52.387Z,86.40
2017-09-22T04:05:20.743Z,86.70
2017-09-22T04:07:49.118Z,86.70
2017-09-22T04:10:17.705Z,86.70
2017-09-22T04:12:46.066Z,87.00
2017-09-22T04:15:14.430Z,87.10
2017-09-22T04:17:42.806Z,87.20
2017-09-22T04:20:11.417Z,86.90
2017-09-22T04:22:39.794Z,87.30
2017-09-22T04:25:08.163Z,87.70
2017-09-22T04:27:36.819Z,88.30
2017-09-22T04:30:05.167Z,87.40
2017-09-22T04:32:34.295Z,87.60
2017-09-22T04:35:02.664Z,87.50
2017-09-22T04:37:31.246Z,87.60
2017-09-22T04:39:59.682Z,87.50
2017-09-22T04:42:28.096Z,88.10
2017-09-22T04:44:56.616Z,87.50
2017-09-22T04:47:24.980Z,87.30
2017-09-22T04:49:53.356Z,87.50
2017-09-22T04:52:21.716Z,87.70
2017-09-22T04:54:50.179Z,87.50
2017-09-22T04:57:18.628Z,87.80
2017-09-22T04:59:47.003Z,88.20
2017-09-22T05:02:15.386Z,88.30
2017-09-22T05:04:43.775Z,88.30
2017-09-22T05:07:12.146Z,88.30
2017-09-22T05:09:40.519Z,88.50
2017-09-22T05:12:08.902Z,88.40
2017-09-22T05:14:37.262Z,88.90
2017-09-22T05:17:05.670Z,88.80
2017-09-22T05:19:34.249Z,89.00
2017-09-22T05:22:02.609Z,89.20
2017-09-22T05:24:31.039Z,89.00
2017-09-22T05:26:59.437Z,89.00
2017-09-22T05:29:28.581Z,89.20
2017-09-22T05:31:56.953Z,89.20
2017-09-22T05:34:25.336Z,89.30
2017-09-22T05:36:53.962Z,89.20
2017-09-22T05:39:23.407Z,89.30
2017-09-22T05:41:51.886Z,89.30
2017-09-22T05:44:20.246Z,89.40
2017-09-22T05:46:48.741Z,89.50
2017-09-22T05:49:17.158Z,89.30
2017-09-22T05:51:45.521Z,89.40
2017-09-22T05:54:14.378Z,89.40
2017-09-22T05:56:42.824Z,89.30
2017-09-22T05:59:11.184Z,89.40
2017-09-22T06:01:39.561Z,89.30
2017-09-22T06:04:07.939Z,89.30
2017-09-22T06:06:36.302Z,89.40
2017-09-22T06:09:03.795Z,89.70
2017-09-22T06:11:32.156Z,89.30
2017-09-22T06:14:00.527Z,89.60
2017-09-22T06:16:28.909Z,89.40
2017-09-22T06:18:57.277Z,89.40
2017-09-22T06:21:25.656Z,89.10
2017-09-22T06:23:54.071Z,88.70
2017-09-22T06:26:22.547Z,88.80
2017-09-22T06:28:50.892Z,88.60
2017-09-22T06:31:19.268Z,88.10
2017-09-22T06:33:47.881Z,87.70
2017-09-22T06:36:16.243Z,87.60
2017-09-22T06:38:44.449Z,87.20
2017-09-22T06:41:13.634Z,87.30
2017-09-22T06:43:42.111Z,87.20
2017-09-22T06:46:10.462Z,87.30
2017-09-22T06:48:38.835Z,86.80
2017-09-22T06:51:07.201Z,86.60
2017-09-22T06:53:36.328Z,86.70
2017-09-22T06:56:04.712Z,86.70
2017-09-22T06:58:33.113Z,86.40
2017-09-22T07:01:01.480Z,86.40
2017-09-22T07:03:29.839Z,86.40
2017-09-22T07:05:58.222Z,86.40
2017-09-22T07:08:26.784Z,87.20
2017-09-22T07:10:55.169Z,86.50
2017-09-22T07:13:23.538Z,86.50
2017-09-22T07:15:51.910Z,86.10
2017-09-22T07:18:20.379Z,86.20
2017-09-22T07:20:48.746Z,86.50
2017-09-22T07:23:17.139Z,86.20
2017-09-22T07:25:45.505Z,86.10
2017-09-22T07:28:13.914Z,86.40
2017-09-22T07:30:42.296Z,86.30
2017-09-22T07:33:10.851Z,86.50
2017-09-22T07:35:39.327Z,86.40
2017-09-22T07:38:07.909Z,86.40
2017-09-22T07:40:36.591Z,86.50
2017-09-22T07:43:05.274Z,86.60
2017-09-22T07:45:33.645Z,86.40
2017-09-22T07:48:02.265Z,86.80
2017-09-22T07:50:30.643Z,86.20
2017-09-22T07:52:59.014Z,86.40
2017-09-22T07:55:27.386Z,86.10
2017-09-22T07:57:55.788Z,85.40
2017-09-22T08:00:23.829Z,84.80
2017-09-22T08:02:52.198Z,84.80
2017-09-22T08:05:20.567Z,84.40
2017-09-22T08:07:48.934Z,84.40
2017-09-22T08:10:17.408Z,84.00
2017-09-22T08:12:45.938Z,83.20
2017-09-22T08:15:15.814Z,82.70
2017-09-22T08:17:44.379Z,82.70
2017-09-22T08:20:13.065Z,82.40
2017-09-22T08:22:41.410Z,81.80
2017-09-22T08:25:10.548Z,82.30
2017-09-22T08:27:38.914Z,82.30
2017-09-22T08:30:07.489Z,82.30
2017-09-22T08:32:36.076Z,82.90
2017-09-22T08:35:04.456Z,82.60
2017-09-22T08:37:32.832Z,83.00
2017-09-22T08:40:01.309Z,81.60
2017-09-22T08:42:29.480Z,81.90
2017-09-22T08:44:57.666Z,81.70
2017-09-22T08:47:26.069Z,81.20
2017-09-22T08:49:54.454Z,80.90
2017-09-22T08:52:23.591Z,77.30
2017-09-22T08:54:51.971Z,77.30
2017-09-22T08:57:20.359Z,78.50
2017-09-22T08:59:48.734Z,79.00
2017-09-22T09:02:17.118Z,79.00
2017-09-22T09:04:45.676Z,78.10
2017-09-22T09:07:14.035Z,77.30
2017-09-22T09:09:42.487Z,76.70
2017-09-22T09:12:10.845Z,76.60
2017-09-22T09:14:39.222Z,77.00
2017-09-22T09:17:07.624Z,77.70
2017-09-22T09:19:36.273Z,76.40
2017-09-22T09:22:04.655Z,74.70
2017-09-22T09:24:33.027Z,73.60
2017-09-22T09:27:01.675Z,72.70
2017-09-22T09:29:30.110Z,70.80
2017-09-22T09:31:58.478Z,71.00
2017-09-22T09:34:27.625Z,69.80
2017-09-22T09:36:56.012Z,69.80
2017-09-22T09:39:24.473Z,70.40
2017-09-22T09:41:52.831Z,70.30
2017-09-22T09:44:21.266Z,70.00
2017-09-22T09:46:51.397Z,69.90
2017-09-22T09:49:19.771Z,70.40
2017-09-22T09:51:48.140Z,70.30
2017-09-22T09:54:16.501Z,71.00
2017-09-22T09:56:44.879Z,69.90
2017-09-22T09:59:13.239Z,70.30
2017-09-22T10:01:41.723Z,69.40
2017-09-22T10:04:10.103Z,69.10
2017-09-22T10:06:38.511Z,68.20
2017-09-22T10:09:06.877Z,67.50
2017-09-22T10:11:35.258Z,67.50
2017-09-22T10:14:03.648Z,67.10
2017-09-22T10:16:32.788Z,66.90
2017-09-22T10:19:01.151Z,66.80
2017-09-22T10:21:29.550Z,65.40
2017-09-22T10:23:57.733Z,64.50
2017-09-22T10:26:26.895Z,64.00
2017-09-22T10:28:55.274Z,64.00
2017-09-22T10:31:23.647Z,65.30
2017-09-22T10:33:52.029Z,65.90
2017-09-22T10:36:20.394Z,64.00
2017-09-22T10:38:48.873Z,62.00
2017-09-22T10:41:17.222Z,62.10
2017-09-22T10:43:45.749Z,62.60
2017-09-22T10:46:14.143Z,63.00
2017-09-22T10:48:42.546Z,61.80
2017-09-22T10:51:10.925Z,60.60
2017-09-22T10:53:39.385Z,61.20
2017-09-22T10:56:07.812Z,61.20
2017-09-22T10:58:36.178Z,61.40
2017-09-22T11:01:04.586Z,61.70
2017-09-22T11:03:32.959Z,61.00
2017-09-22T11:06:01.338Z,61.00
2017-09-22T11:08:30.388Z,60.90
2017-09-22T11:10:58.740Z,59.90
2017-09-22T11:13:27.230Z,60.10
2017-09-22T11:15:55.598Z,60.50
2017-09-22T11:18:23.966Z,61.70
2017-09-22T11:20:52.492Z,60.10
2017-09-22T11:23:20.839Z,57.40
2017-09-22T11:25:49.966Z,57.80
2017-09-22T11:28:18.317Z,57.70
2017-09-22T11:30:46.203Z,57.60
2017-09-22T11:33:14.566Z,57.70
2017-09-22T11:35:42.925Z,57.40
2017-09-22T11:38:11.287Z,58.00
2017-09-22T11:40:39.807Z,58.30
2017-09-22T11:43:08.268Z,57.60
2017-09-22T11:45:36.873Z,57.70
2017-09-22T11:48:05.262Z,57.50
2017-09-22T11:50:33.925Z,56.50
2017-09-22T11:53:02.361Z,57.00
2017-09-22T11:55:31.482Z,56.60
2017-09-22T11:57:59.970Z,56.60
2017-09-22T12:00:28.350Z,55.70
2017-09-22T12:02:56.721Z,56.10
2017-09-22T12:05:25.167Z,56.80
2017-09-22T12:07:54.303Z,56.40
2017-09-22T12:10:22.665Z,56.30
2017-09-22T12:12:51.048Z,56.20
2017-09-22T12:15:19.434Z,56.80
2017-09-22T12:17:47.791Z,57.10
2017-09-22T12:20:16.148Z,56.60
2017-09-22T12:22:44.524Z,56.30
2017-09-22T12:25:12.890Z,56.40
2017-09-22T12:27:41.254Z,56.40
2017-09-22T12:30:09.618Z,56.70
2017-09-22T12:32:37.969Z,55.90
2017-09-22T12:35:06.351Z,55.10
2017-09-22T12:37:34.762Z,54.70
2017-09-22T12:40:03.285Z,54.00
2017-09-22T12:42:31.664Z,53.00
2017-09-22T12:45:00.039Z,54.00
2017-09-22T12:47:28.406Z,52.40
2017-09-22T12:49:57.099Z,53.10
2017-09-22T12:52:25.480Z,53.20
2017-09-22T12:54:53.836Z,54.20
2017-09-22T12:57:22.976Z,53.60
2017-09-22T12:59:51.349Z,53.60
2017-09-22T13:02:19.748Z,53.10
2017-09-22T13:04:48.114Z,52.60
2017-09-22T13:07:16.319Z,53.30
2017-09-22T13:09:45.272Z,53.80
2017-09-22T13:12:13.451Z,53.80
2017-09-22T13:14:41.622Z,53.10
2017-09-22T13:17:10.003Z,53.30
2017-09-22T13:19:38.363Z,53.70
2017-09-22T13:22:06.726Z,54.10
2017-09-22T13:24:35.105Z,54.80
2017-09-22T13:27:03.479Z,54.70
2017-09-22T13:29:31.841Z,54.60
2017-09-22T13:32:00.409Z,55.30
2017-09-22T13:34:28.770Z,55.10
2017-09-22T13:36:57.233Z,54.60
2017-09-22T13:39:25.415Z,54.60
2017-09-22T13:41:53.923Z,55.10
2017-09-22T13:44:22.101Z,56.00
2017-09-22T13:46:50.279Z,55.10
2017-09-22T13:49:18.647Z,55.40
2017-09-22T13:51:47.005Z,56.00
2017-09-22T13:54:15.187Z,55.80
2017-09-22T13:56:43.575Z,54.00
2017-09-22T13:59:11.743Z,54.50
2017-09-22T14:01:40.132Z,54.10
2017-09-22T14:04:08.516Z,54.70
2017-09-22T14:06:36.918Z,54.70
2017-09-22T14:09:04.589Z,54.20
2017-09-22T14:11:33.913Z,53.60
2017-09-22T14:14:02.340Z,53.50
2017-09-22T14:16:30.524Z,54.20
2017-09-22T14:18:58.945Z,54.70
2017-09-22T14:21:27.317Z,54.80
2017-09-22T14:23:55.792Z,55.00
2017-09-22T14:26:24.272Z,55.10
2017-09-22T14:28:52.703Z,54.50
2017-09-22T14:31:21.067Z,54.60
2017-09-22T14:33:49.298Z,54.30
2017-09-22T14:36:17.660Z,54.50
2017-09-22T14:38:46.107Z,54.00
2017-09-22T14:41:14.503Z,54.50
2017-09-22T14:43:42.924Z,53.60
2017-09-22T14:46:11.488Z,53.90
2017-09-22T14:48:39.918Z,53.80
2017-09-22T14:51:08.500Z,53.50
2017-09-22T14:53:36.919Z,54.30
2017-09-22T14:56:05.299Z,54.30
2017-09-22T14:58:33.686Z,54.70
2017-09-22T15:01:02.047Z,54.60
2017-09-22T15:03:30.408Z,54.20
2017-09-22T15:05:58.771Z,54.70
2017-09-22T15:08:27.956Z,54.10
2017-09-22T15:10:56.469Z,54.10
2017-09-22T15:13:24.939Z,54.70
2017-09-22T15:15:53.315Z,55.00
2017-09-22T15:18:21.696Z,54.90
2017-09-22T15:20:50.129Z,55.20
2017-09-22T15:23:18.501Z,55.50
2017-09-22T15:25:46.878Z,56.30
2017-09-22T15:28:15.237Z,56.60
2017-09-22T15:30:43.614Z,57.10
2017-09-22T15:33:12.127Z,57.10
2017-09-22T15:35:41.460Z,57.40
2017-09-22T15:38:09.855Z,57.40
2017-09-22T15:40:38.246Z,57.50
2017-09-22T15:43:06.589Z,57.90
2017-09-22T15:45:34.618Z,58.40
2017-09-22T15:48:03.960Z,58.50
2017-09-22T15:50:32.332Z,58.50
2017-09-22T15:53:00.707Z,58.60
2017-09-22T15:55:29.065Z,58.70
2017-09-22T15:57:57.439Z,58.80
2017-09-22T16:00:25.866Z,59.00
2017-09-22T16:02:54.232Z,59.30
2017-09-22T16:05:22.810Z,59.90
2017-09-22T16:07:51.184Z,60.10
2017-09-22T16:10:19.570Z,60.80
2017-09-22T16:12:47.946Z,62.00
2017-09-22T16:15:16.992Z,66.40
2017-09-22T16:17:45.937Z,77.50
2017-09-22T16:20:14.376Z,77.40
2017-09-22T16:22:42.742Z,78.40
2017-09-22T16:25:11.436Z,80.00
2017-09-22T16:27:40.125Z,84.50
2017-09-22T16:30:08.481Z,87.20
2017-09-22T16:32:36.514Z,87.40
2017-09-22T16:35:05.247Z,89.00
2017-09-22T16:37:33.618Z,88.70
2017-09-22T16:40:02.920Z,87.70
2017-09-22T16:42:31.397Z,86.40
2017-09-22T16:44:59.772Z,89.10
2017-09-22T16:47:28.251Z,90.20
2017-09-22T16:49:56.632Z,88.50
2017-09-22T16:52:25.017Z,87.40
2017-09-22T16:54:53.592Z,89.10
2017-09-22T16:57:21.965Z,88.40
2017-09-22T16:59:50.165Z,87.90
2017-09-22T17:02:18.535Z,87.70
2017-09-22T17:04:46.913Z,88.80
2017-09-22T17:07:15.303Z,88.60
2017-09-22T17:09:43.940Z,88.80
2017-09-22T17:12:12.319Z,90.40
2017-09-22T17:14:40.899Z,90.70
2017-09-22T17:17:09.288Z,91.70
2017-09-22T17:19:37.801Z,91.50
2017-09-22T17:22:06.176Z,91.40
2017-09-22T17:24:34.710Z,91.70
2017-09-22T17:27:03.185Z,92.40
2017-09-22T17:29:31.555Z,92.10
2017-09-22T17:31:59.942Z,92.50
2017-09-22T17:34:28.316Z,92.10
2017-09-22T17:36:56.695Z,92.60
2017-09-22T17:39:25.378Z,91.90
2017-09-22T17:41:53.762Z,92.20
2017-09-22T17:44:22.135Z,91.00
2017-09-22T17:46:50.511Z,91.80
2017-09-22T17:49:18.881Z,91.10
2017-09-22T17:51:47.286Z,90.70
2017-09-22T17:54:15.659Z,90.80
2017-09-22T17:56:44.035Z,90.80
2017-09-22T17:59:12.413Z,91.00
2017-09-22T18:01:40.865Z,90.70
2017-09-22T18:04:09.235Z,90.00
2017-09-22T18:06:37.858Z,90.10
2017-09-22T18:09:06.244Z,89.20
2017-09-22T18:11:34.662Z,88.30
2017-09-22T18:14:03.116Z,88.00
2017-09-22T18:16:31.472Z,87.80
2017-09-22T18:19:00.112Z,87.50
2017-09-22T18:21:27.850Z,87.00
2017-09-22T18:23:56.551Z,87.10
2017-09-22T18:26:24.929Z,87.30
2017-09-22T18:28:53.301Z,87.50
2017-09-22T18:31:21.678Z,87.10
2017-09-22T18:33:50.073Z,86.70
2017-09-22T18:36:19.540Z,88.00
2017-09-22T18:38:48.754Z,87.60
2017-09-22T18:41:17.123Z,88.30
2017-09-22T18:43:45.314Z,88.60
2017-09-22T18:46:13.486Z,88.10
2017-09-22T18:48:41.660Z,87.10
2017-09-22T18:51:09.895Z,87.40
2017-09-22T18:53:38.218Z,88.10
2017-09-22T18:56:06.638Z,89.10
2017-09-22T18:58:35.969Z,89.30
2017-09-22T19:01:04.686Z,89.30
2017-09-22T19:03:33.144Z,87.50
2017-09-22T19:06:03.189Z,87.10
2017-09-22T19:08:31.567Z,87.40
2017-09-22T19:10:59.969Z,87.80
2017-09-22T19:13:28.385Z,87.60
2017-09-22T19:15:56.985Z,86.80
2017-09-22T19:18:25.373Z,85.90
2017-09-22T19:20:55.309Z,85.80
2017-09-22T19:23:23.681Z,85.80
2017-09-22T19:25:52.051Z,86.20
2017-09-22T19:28:20.479Z,86.10
2017-09-22T19:30:48.686Z,86.60
2017-09-22T19:33:16.723Z,86.60
2017-09-22T19:35:45.097Z,86.60
2017-09-22T19:38:13.520Z,86.60
2017-09-22T19:40:41.914Z,87.00
2017-09-22T19:43:11.097Z,87.40
2017-09-22T19:45:40.272Z,86.40
2017-09-22T19:48:08.646Z,86.60
2017-09-22T19:50:37.032Z,87.10
2017-09-22T19:53:05.426Z,87.80
2017-09-22T19:55:34.025Z,87.80
2017-09-22T19:58:02.430Z,87.30
2017-09-22T20:00:30.800Z,86.90
2017-09-22T20:02:59.190Z,87.30
2017-09-22T20:05:27.609Z,87.80
2017-09-22T20:07:56.785Z,90.00
2017-09-22T20:10:25.942Z,90.20
2017-09-22T20:12:55.125Z,90.60
2017-09-22T20:15:23.308Z,90.60
2017-09-22T20:17:52.532Z,91.40
2017-09-22T20:20:20.906Z,91.30
2017-09-22T20:22:49.287Z,92.20
2017-09-22T20:25:17.664Z,93.10
2017-09-22T20:27:46.034Z,94.40
2017-09-22T20:30:14.402Z,94.70
2017-09-22T20:32:42.787Z,94.60
2017-09-22T20:35:12.794Z,95.20
2017-09-22T20:37:41.253Z,95.20
2017-09-22T20:40:09.928Z,95.10
2017-09-22T20:42:38.392Z,95.30
2017-09-22T20:45:06.986Z,95.50
2017-09-22T20:47:35.464Z,95.30
2017-09-22T20:50:03.495Z,95.50
2017-09-22T20:52:32.643Z,95.30
2017-09-22T20:55:01.007Z,95.30
2017-09-22T20:57:29.391Z,95.20
2017-09-22T20:59:57.855Z,95.30
2017-09-22T21:02:26.218Z,95.20
2017-09-22T21:04:54.605Z,95.30
2017-09-22T21:07:22.959Z,95.20
2017-09-22T21:09:51.400Z,94.90
2017-09-22T21:12:21.312Z,95.00
2017-09-22T21:14:49.720Z,94.90
2017-09-22T21:17:18.085Z,94.70
2017-09-22T21:19:46.469Z,94.80
2017-09-22T21:22:14.835Z,94.70
2017-09-22T21:24:43.232Z,94.80
2017-09-22T21:27:11.763Z,94.80
2017-09-22T21:29:40.208Z,94.90
2017-09-22T21:32:08.566Z,95.00
2017-09-22T21:34:36.939Z,95.30
2017-09-22T21:37:05.344Z,94.90
2017-09-22T21:39:33.719Z,94.70
2017-09-22T21:42:02.094Z,94.90
2017-09-22T21:44:30.465Z,94.80
2017-09-22T21:46:58.868Z,95.10
2017-09-22T21:49:27.274Z,95.40
2017-09-22T21:51:55.634Z,95.30
2017-09-22T21:54:24.020Z,95.70
2017-09-22T21:56:52.887Z,95.30
2017-09-22T21:59:21.259Z,95.20
2017-09-22T22:01:49.634Z,95.10
2017-09-22T22:04:23.499Z,95.30
2017-09-22T22:06:58.133Z,95.50
2017-09-22T22:09:26.501Z,95.50
2017-09-22T22:11:54.882Z,95.30
2017-09-22T22:14:23.277Z,95.20
2017-09-22T22:16:51.671Z,95.20
2017-09-22T22:19:20.050Z,95.50
2017-09-22T22:21:48.425Z,95.60
2017-09-22T22:24:16.832Z,95.70
2017-09-22T22:26:45.229Z,95.60
2017-09-22T22:29:13.724Z,95.30
2017-09-22T22:31:42.081Z,95.40
2017-09-22T22:34:10.728Z,95.50
2017-09-22T22:36:40.024Z,95.60
2017-09-22T22:39:08.186Z,95.60
2017-09-22T22:41:36.551Z,95.70
2017-09-22T22:44:04.910Z,95.90
2017-09-22T22:46:33.297Z,96.00
2017-09-22T22:49:01.668Z,96.00
2017-09-22T22:51:30.049Z,96.00
2017-09-22T22:53:58.438Z,96.20
2017-09-22T22:56:27.092Z,96.10
2017-09-22T22:58:55.441Z,96.10
2017-09-22T23:01:24.602Z,95.70
2017-09-22T23:03:54.489Z,95.60
2017-09-22T23:06:23.054Z,95.50
2017-09-22T23:08:51.425Z,95.70
2017-09-22T23:11:19.795Z,95.70
2017-09-22T23:13:48.388Z,95.90
2017-09-22T23:16:16.966Z,95.80
2017-09-22T23:18:45.547Z,95.50
2017-09-22T23:21:13.565Z,95.70
2017-09-22T23:23:42.933Z,95.80
2017-09-22T23:26:11.298Z,95.70
2017-09-22T23:28:39.675Z,95.70
2017-09-22T23:31:08.247Z,95.40
2017-09-22T23:33:36.602Z,95.60
2017-09-22T23:36:05.058Z,95.60
2017-09-22T23:38:33.678Z,95.70
2017-09-22T23:41:02.032Z,95.70
2017-09-22T23:43:31.170Z,95.70
2017-09-22T23:45:59.542Z,95.70
2017-09-22T23:48:27.946Z,95.30
2017-09-22T23:50:56.318Z,95.30
2017-09-22T23:53:24.672Z,95.20
2017-09-22T23:55:52.897Z,95.00
2017-09-22T23:58:21.250Z,94.90
